Thursday, June 21, 2018, 12:17 PM EDT
Back to Local

KRUT, Rutland, Rutland-southern Vermont Regional Airport

Location: North Clarendon, VT, United States Lat: 43.533
Local Time: 12:17 PM EDT (16:17 GMT) Lon: -72.95
Time Zone: US/Eastern Elev: 787 ft

Show me the last for .
Show Decoded

2018-06-21 11:56 METAR KRUT 211556Z AUTO VRB06KT 10SM CLR 19/11 A2987 RMK AO2 SLP129 T01890106 $
                 =
2018-06-21 10:56 METAR KRUT 211456Z AUTO 35009KT 310V010 10SM FEW100 18/11 A2987 RMK AO2 SLP129
                 T01780106 51010 $ =
2018-06-21 09:56 METAR KRUT 211356Z AUTO 33006KT 10SM OVC085 16/11 A2986 RMK AO2 SLP129 T01560106
                 $ =
2018-06-21 08:56 METAR KRUT 211256Z AUTO 32007KT 10SM FEW018 OVC080 16/13 A2986 RMK AO2 SLP124
                 T01610128 $ =
2018-06-21 07:56 METAR KRUT 211156Z AUTO VRB03KT 10SM SCT075 16/12 A2984 RMK AO2 SLP116 T01610122
                 10161 20111 51015 $ =
2018-06-21 06:56 METAR KRUT 211056Z AUTO 13003KT 10SM CLR 13/11 A2983 RMK AO2 SLP115 T01280106 $
                 =
2018-06-21 05:56 METAR KRUT 210956Z AUTO 11005KT 10SM CLR 12/10 A2981 RMK AO2 SLP110 T01170100 $
                 =
2018-06-21 04:56 METAR KRUT 210856Z AUTO 12006KT 10SM CLR 12/10 A2979 RMK AO2 SLP102 T01170100
                 55002 $ =
2018-06-21 03:56 METAR KRUT 210756Z AUTO 11005KT 10SM CLR 12/10 A2979 RMK AO2 SLP101 T01220100 $
                 =
2018-06-21 02:56 METAR KRUT 210656Z AUTO 12008KT 10SM CLR 13/11 A2979 RMK AO2 SLP103 T01280106 $
                 =
2018-06-21 01:56 METAR KRUT 210556Z AUTO 13008KT 10SM CLR 13/11 A2980 RMK AO2 SLP105 T01280106
                 10217 20128 58000 $ =
2018-06-21 00:56 METAR KRUT 210456Z AUTO 11005KT 10SM CLR 14/11 A2980 RMK AO2 SLP104 T01440111
                 402390089 $ =
2018-06-20 23:56 METAR KRUT 210356Z AUTO 12008KT 10SM CLR 14/11 A2980 RMK AO2 SLP105 T01440111 $
                 =
2018-06-20 22:56 METAR KRUT 210256Z AUTO 12006KT 10SM CLR 16/12 A2980 RMK AO2 SLP104 T01610117
                 50005 $ =
2018-06-20 21:56 METAR KRUT 210156Z AUTO 12005KT 10SM CLR 17/12 A2980 RMK AO2 SLP104 T01670122 $
                 =
2018-06-20 19:56 METAR KRUT 202356Z AUTO VRB03KT 10SM CLR 22/12 A2978 RMK AO2 SLP100 T02170122
                 10239 20217 55007 $ =
2018-06-20 18:56 METAR KRUT 202256Z AUTO VRB03KT 10SM CLR 23/12 A2978 RMK AO2 SLP099 T02280117 $
                 =
2018-06-20 16:56 METAR KRUT 202056Z AUTO 23008KT 190V260 10SM CLR 23/11 A2980 RMK AO2 SLP108
                 T02330111 56013 $ =
2018-06-20 15:56 METAR KRUT 201956Z AUTO 19006KT 10SM CLR 23/11 A2981 RMK AO2 SLP112 T02330111 $
                 =
2018-06-20 14:56 METAR KRUT 201856Z AUTO 21006KT 10SM CLR 23/09 A2983 RMK AO2 SLP116 T02280089 $
                 =
2018-06-20 13:56 METAR KRUT 201756Z AUTO 23009KT 10SM CLR 23/11 A2984 RMK AO2 SLP120 T02280106
                 10233 20139 56014 $ =
2018-06-20 12:56 METAR KRUT 201656Z AUTO 30004KT 10SM CLR 23/09 A2985 RMK AO2 SLP123 T02280094 $
                 =

Support USWX by starting your Amazon purchase here.